sensor_id;sensor_type;location;lat;lon;timestamp;P1;durP1;ratioP1;P2;durP2;ratioP2
58581;SDS011;44361;51.476;5.700;2023-04-02T00:02:44;11.07;;;6.47;;
58581;SDS011;44361;51.476;5.700;2023-04-02T00:07:59;9.18;;;6.20;;
58581;SDS011;44361;51.476;5.700;2023-04-02T00:10:37;8.63;;;5.50;;
58581;SDS011;44361;51.476;5.700;2023-04-02T00:15:36;7.72;;;5.30;;
58581;SDS011;44361;51.476;5.700;2023-04-02T00:18:03;8.10;;;5.03;;
58581;SDS011;44361;51.476;5.700;2023-04-02T00:20:31;9.25;;;6.07;;
58581;SDS011;44361;51.476;5.700;2023-04-02T00:23:01;8.93;;;4.97;;
58581;SDS011;44361;51.476;5.700;2023-04-02T00:25:27;8.40;;;5.53;;
58581;SDS011;44361;51.476;5.700;2023-04-02T00:27:57;7.75;;;5.72;;
58581;SDS011;44361;51.476;5.700;2023-04-02T00:30:22;9.07;;;6.47;;
58581;SDS011;44361;51.476;5.700;2023-04-02T00:32:48;11.05;;;7.20;;
58581;SDS011;44361;51.476;5.700;2023-04-02T00:35:22;10.07;;;6.72;;
58581;SDS011;44361;51.476;5.700;2023-04-02T00:37:51;10.77;;;6.43;;
58581;SDS011;44361;51.476;5.700;2023-04-02T00:40:21;9.73;;;5.78;;
58581;SDS011;44361;51.476;5.700;2023-04-02T00:42:49;9.15;;;5.45;;
58581;SDS011;44361;51.476;5.700;2023-04-02T00:47:49;8.18;;;5.55;;
58581;SDS011;44361;51.476;5.700;2023-04-02T00:53:04;7.68;;;5.28;;
58581;SDS011;44361;51.476;5.700;2023-04-02T00:55:40;9.55;;;5.22;;
58581;SDS011;44361;51.476;5.700;2023-04-02T01:01:01;10.45;;;6.97;;
58581;SDS011;44361;51.476;5.700;2023-04-02T01:03:32;10.65;;;6.65;;
58581;SDS011;44361;51.476;5.700;2023-04-02T01:08:48;9.20;;;6.53;;
58581;SDS011;44361;51.476;5.700;2023-04-02T01:25:24;17.67;;;9.93;;
58581;SDS011;44361;51.476;5.700;2023-04-02T01:28:04;16.60;;;9.32;;
58581;SDS011;44361;51.476;5.700;2023-04-02T01:31:00;13.10;;;8.10;;
58581;SDS011;44361;51.476;5.700;2023-04-02T01:33:28;11.98;;;7.72;;
58581;SDS011;44361;51.476;5.700;2023-04-02T01:36:02;12.07;;;6.80;;
58581;SDS011;44361;51.476;5.700;2023-04-02T01:38:48;11.35;;;7.00;;
58581;SDS011;44361;51.476;5.700;2023-04-02T01:41:47;13.55;;;7.22;;
58581;SDS011;44361;51.476;5.700;2023-04-02T01:44:33;10.50;;;7.35;;
58581;SDS011;44361;51.476;5.700;2023-04-02T01:47:06;10.93;;;5.68;;
58581;SDS011;44361;51.476;5.700;2023-04-02T01:49:35;8.68;;;6.22;;
58581;SDS011;44361;51.476;5.700;2023-04-02T01:52:01;11.30;;;6.38;;
58581;SDS011;44361;51.476;5.700;2023-04-02T01:54:27;11.57;;;6.50;;
58581;SDS011;44361;51.476;5.700;2023-04-02T01:56:53;8.65;;;5.47;;
58581;SDS011;44361;51.476;5.700;2023-04-02T01:59:21;9.38;;;5.63;;
58581;SDS011;44361;51.476;5.700;2023-04-02T02:01:51;9.73;;;6.45;;
58581;SDS011;44361;51.476;5.700;2023-04-02T02:04:25;8.70;;;5.72;;
58581;SDS011;44361;51.476;5.700;2023-04-02T02:06:51;8.73;;;5.65;;
58581;SDS011;44361;51.476;5.700;2023-04-02T02:09:21;9.05;;;5.68;;
58581;SDS011;44361;51.476;5.700;2023-04-02T02:11:50;9.18;;;5.40;;
58581;SDS011;44361;51.476;5.700;2023-04-02T02:14:23;13.63;;;6.50;;
58581;SDS011;44361;51.476;5.700;2023-04-02T02:16:52;9.02;;;5.43;;
58581;SDS011;44361;51.476;5.700;2023-04-02T02:25:02;9.43;;;5.20;;
58581;SDS011;44361;51.476;5.700;2023-04-02T02:30:14;7.90;;;5.03;;
58581;SDS011;44361;51.476;5.700;2023-04-02T02:38:21;5.88;;;3.85;;
58581;SDS011;44361;51.476;5.700;2023-04-02T02:40:48;7.25;;;3.90;;
58581;SDS011;44361;51.476;5.700;2023-04-02T02:43:18;6.60;;;3.92;;
58581;SDS011;44361;51.476;5.700;2023-04-02T02:45:44;6.50;;;4.10;;
58581;SDS011;44361;51.476;5.700;2023-04-02T02:48:12;8.10;;;4.40;;
58581;SDS011;44361;51.476;5.700;2023-04-02T02:50:41;7.45;;;4.07;;
58581;SDS011;44361;51.476;5.700;2023-04-02T02:53:16;6.80;;;4.25;;
58581;SDS011;44361;51.476;5.700;2023-04-02T02:55:44;8.68;;;5.13;;
58581;SDS011;44361;51.476;5.700;2023-04-02T02:58:33;8.90;;;4.70;;
58581;SDS011;44361;51.476;5.700;2023-04-02T03:00:58;8.55;;;5.05;;
58581;SDS011;44361;51.476;5.700;2023-04-02T03:03:28;7.10;;;4.82;;
58581;SDS011;44361;51.476;5.700;2023-04-02T03:06:00;8.20;;;5.30;;
58581;SDS011;44361;51.476;5.700;2023-04-02T03:08:31;9.60;;;4.75;;
58581;SDS011;44361;51.476;5.700;2023-04-02T03:11:05;8.40;;;5.05;;
58581;SDS011;44361;51.476;5.700;2023-04-02T03:13:36;10.65;;;5.65;;
58581;SDS011;44361;51.476;5.700;2023-04-02T03:19:04;9.10;;;5.45;;
58581;SDS011;44361;51.476;5.700;2023-04-02T03:24:19;10.05;;;5.65;;
58581;SDS011;44361;51.476;5.700;2023-04-02T03:26:48;12.63;;;5.30;;
58581;SDS011;44361;51.476;5.700;2023-04-02T03:29:28;8.77;;;5.82;;
58581;SDS011;44361;51.476;5.700;2023-04-02T03:31:58;9.25;;;5.82;;
58581;SDS011;44361;51.476;5.700;2023-04-02T03:34:36;9.38;;;6.15;;
58581;SDS011;44361;51.476;5.700;2023-04-02T03:37:21;12.77;;;6.22;;
58581;SDS011;44361;51.476;5.700;2023-04-02T03:39:56;9.90;;;6.10;;
58581;SDS011;44361;51.476;5.700;2023-04-02T03:42:43;9.98;;;5.88;;
58581;SDS011;44361;51.476;5.700;2023-04-02T03:45:15;11.27;;;6.45;;
58581;SDS011;44361;51.476;5.700;2023-04-02T03:47:53;15.95;;;6.78;;
58581;SDS011;44361;51.476;5.700;2023-04-02T03:50:45;12.02;;;6.43;;
58581;SDS011;44361;51.476;5.700;2023-04-02T03:53:17;14.00;;;6.57;;
58581;SDS011;44361;51.476;5.700;2023-04-02T03:55:47;12.05;;;6.30;;
58581;SDS011;44361;51.476;5.700;2023-04-02T03:58:16;11.18;;;6.80;;
58581;SDS011;44361;51.476;5.700;2023-04-02T04:06:05;10.85;;;6.13;;
58581;SDS011;44361;51.476;5.700;2023-04-02T04:08:40;11.38;;;5.78;;
58581;SDS011;44361;51.476;5.700;2023-04-02T04:11:14;16.55;;;5.57;;
58581;SDS011;44361;51.476;5.700;2023-04-02T04:13:52;14.75;;;6.25;;
58581;SDS011;44361;51.476;5.700;2023-04-02T04:16:28;9.32;;;5.82;;
58581;SDS011;44361;51.476;5.700;2023-04-02T04:19:03;11.85;;;6.15;;
58581;SDS011;44361;51.476;5.700;2023-04-02T04:21:39;10.05;;;5.88;;
58581;SDS011;44361;51.476;5.700;2023-04-02T04:24:16;9.88;;;5.50;;
58581;SDS011;44361;51.476;5.700;2023-04-02T04:32:30;15.93;;;8.00;;
58581;SDS011;44361;51.476;5.700;2023-04-02T04:35:01;14.45;;;8.13;;
58581;SDS011;44361;51.476;5.700;2023-04-02T04:37:47;16.90;;;8.25;;
58581;SDS011;44361;51.476;5.700;2023-04-02T04:40:23;16.48;;;8.43;;
58581;SDS011;44361;51.476;5.700;2023-04-02T04:42:53;19.65;;;8.90;;
58581;SDS011;44361;51.476;5.700;2023-04-02T04:47:59;15.80;;;8.40;;
58581;SDS011;44361;51.476;5.700;2023-04-02T04:53:19;17.92;;;8.57;;
58581;SDS011;44361;51.476;5.700;2023-04-02T04:55:46;13.95;;;8.45;;
58581;SDS011;44361;51.476;5.700;2023-04-02T04:58:21;14.32;;;7.72;;
58581;SDS011;44361;51.476;5.700;2023-04-02T05:01:09;16.33;;;8.02;;
58581;SDS011;44361;51.476;5.700;2023-04-02T05:04:03;16.50;;;7.75;;
58581;SDS011;44361;51.476;5.700;2023-04-02T05:06:42;12.98;;;8.30;;
58581;SDS011;44361;51.476;5.700;2023-04-02T05:15:00;13.52;;;7.30;;
58581;SDS011;44361;51.476;5.700;2023-04-02T05:20:05;15.93;;;8.00;;
58581;SDS011;44361;51.476;5.700;2023-04-02T05:22:47;13.52;;;8.93;;
58581;SDS011;44361;51.476;5.700;2023-04-02T05:25:29;12.80;;;7.45;;
58581;SDS011;44361;51.476;5.700;2023-04-02T05:28:02;18.25;;;7.55;;
58581;SDS011;44361;51.476;5.700;2023-04-02T05:33:45;13.30;;;6.55;;
58581;SDS011;44361;51.476;5.700;2023-04-02T05:36:19;13.02;;;7.05;;
58581;SDS011;44361;51.476;5.700;2023-04-02T05:38:47;11.85;;;7.50;;
58581;SDS011;44361;51.476;5.700;2023-04-02T05:41:23;12.63;;;7.22;;
58581;SDS011;44361;51.476;5.700;2023-04-02T05:46:50;10.40;;;6.55;;
58581;SDS011;44361;51.476;5.700;2023-04-02T05:49:46;13.65;;;7.00;;
58581;SDS011;44361;51.476;5.700;2023-04-02T05:52:33;14.25;;;7.55;;
58581;SDS011;44361;51.476;5.700;2023-04-02T05:57:50;12.35;;;7.03;;
58581;SDS011;44361;51.476;5.700;2023-04-02T06:00:23;18.55;;;7.80;;
58581;SDS011;44361;51.476;5.700;2023-04-02T06:03:18;10.43;;;6.90;;
58581;SDS011;44361;51.476;5.700;2023-04-02T06:06:02;12.53;;;6.60;;
58581;SDS011;44361;51.476;5.700;2023-04-02T06:08:36;14.30;;;6.88;;
58581;SDS011;44361;51.476;5.700;2023-04-02T06:11:17;13.18;;;6.80;;
58581;SDS011;44361;51.476;5.700;2023-04-02T06:13:49;12.57;;;6.45;;
58581;SDS011;44361;51.476;5.700;2023-04-02T06:16:15;13.13;;;6.53;;
58581;SDS011;44361;51.476;5.700;2023-04-02T06:18:41;11.43;;;5.82;;
58581;SDS011;44361;51.476;5.700;2023-04-02T06:21:07;11.70;;;6.82;;
58581;SDS011;44361;51.476;5.700;2023-04-02T06:23:42;12.63;;;6.20;;
58581;SDS011;44361;51.476;5.700;2023-04-02T06:26:50;13.25;;;5.18;;
58581;SDS011;44361;51.476;5.700;2023-04-02T06:29:13;11.48;;;5.82;;
58581;SDS011;44361;51.476;5.700;2023-04-02T06:31:52;12.13;;;5.85;;
58581;SDS011;44361;51.476;5.700;2023-04-02T06:34:22;15.38;;;6.70;;
58581;SDS011;44361;51.476;5.700;2023-04-02T06:36:50;9.85;;;5.55;;
58581;SDS011;44361;51.476;5.700;2023-04-02T06:39:20;11.05;;;5.78;;
58581;SDS011;44361;51.476;5.700;2023-04-02T06:41:58;10.43;;;5.38;;
58581;SDS011;44361;51.476;5.700;2023-04-02T06:44:27;10.75;;;5.28;;
58581;SDS011;44361;51.476;5.700;2023-04-02T06:47:01;13.35;;;6.30;;
58581;SDS011;44361;51.476;5.700;2023-04-02T06:49:56;8.52;;;5.13;;
58581;SDS011;44361;51.476;5.700;2023-04-02T06:52:33;11.27;;;5.88;;
58581;SDS011;44361;51.476;5.700;2023-04-02T06:55:06;10.18;;;5.10;;
58581;SDS011;44361;51.476;5.700;2023-04-02T06:57:44;12.70;;;5.38;;
58581;SDS011;44361;51.476;5.700;2023-04-02T07:00:24;28.58;;;5.75;;
58581;SDS011;44361;51.476;5.700;2023-04-02T07:02:55;10.02;;;4.75;;
58581;SDS011;44361;51.476;5.700;2023-04-02T07:05:25;10.80;;;5.13;;
58581;SDS011;44361;51.476;5.700;2023-04-02T07:07:50;9.63;;;5.05;;
58581;SDS011;44361;51.476;5.700;2023-04-02T07:10:16;8.23;;;4.50;;
58581;SDS011;44361;51.476;5.700;2023-04-02T07:12:44;10.70;;;4.88;;
58581;SDS011;44361;51.476;5.700;2023-04-02T07:15:13;9.20;;;3.78;;
58581;SDS011;44361;51.476;5.700;2023-04-02T07:17:40;6.90;;;3.50;;
58581;SDS011;44361;51.476;5.700;2023-04-02T07:20:06;11.50;;;4.00;;
58581;SDS011;44361;51.476;5.700;2023-04-02T07:22:44;7.80;;;3.80;;
58581;SDS011;44361;51.476;5.700;2023-04-02T07:25:10;5.75;;;3.85;;
58581;SDS011;44361;51.476;5.700;2023-04-02T07:27:35;6.78;;;3.50;;
58581;SDS011;44361;51.476;5.700;2023-04-02T07:30:01;6.45;;;3.42;;
58581;SDS011;44361;51.476;5.700;2023-04-02T07:32:28;8.95;;;3.35;;
58581;SDS011;44361;51.476;5.700;2023-04-02T07:34:53;7.57;;;3.70;;
58581;SDS011;44361;51.476;5.700;2023-04-02T07:37:19;6.22;;;3.25;;
58581;SDS011;44361;51.476;5.700;2023-04-02T07:39:44;5.72;;;3.28;;
58581;SDS011;44361;51.476;5.700;2023-04-02T07:42:10;6.43;;;3.15;;
58581;SDS011;44361;51.476;5.700;2023-04-02T07:44:35;11.20;;;3.70;;
58581;SDS011;44361;51.476;5.700;2023-04-02T07:47:01;4.95;;;2.65;;
58581;SDS011;44361;51.476;5.700;2023-04-02T07:49:27;7.57;;;2.60;;
58581;SDS011;44361;51.476;5.700;2023-04-02T07:51:52;4.78;;;2.42;;
58581;SDS011;44361;51.476;5.700;2023-04-02T07:54:18;5.78;;;2.58;;
58581;SDS011;44361;51.476;5.700;2023-04-02T07:56:43;8.27;;;3.20;;
58581;SDS011;44361;51.476;5.700;2023-04-02T07:59:09;7.60;;;2.70;;
58581;SDS011;44361;51.476;5.700;2023-04-02T08:01:35;6.88;;;2.85;;
58581;SDS011;44361;51.476;5.700;2023-04-02T08:04:01;4.40;;;2.10;;
58581;SDS011;44361;51.476;5.700;2023-04-02T08:06:28;6.68;;;2.30;;
58581;SDS011;44361;51.476;5.700;2023-04-02T08:08:54;5.45;;;2.30;;
58581;SDS011;44361;51.476;5.700;2023-04-02T08:11:20;5.55;;;2.25;;
58581;SDS011;44361;51.476;5.700;2023-04-02T08:13:46;6.95;;;2.15;;
58581;SDS011;44361;51.476;5.700;2023-04-02T08:16:11;7.43;;;2.38;;
58581;SDS011;44361;51.476;5.700;2023-04-02T08:18:37;5.15;;;2.13;;
58581;SDS011;44361;51.476;5.700;2023-04-02T08:21:06;6.03;;;2.17;;
58581;SDS011;44361;51.476;5.700;2023-04-02T08:23:33;4.35;;;1.80;;
58581;SDS011;44361;51.476;5.700;2023-04-02T08:25:59;4.18;;;1.40;;
58581;SDS011;44361;51.476;5.700;2023-04-02T08:28:25;5.15;;;1.55;;
58581;SDS011;44361;51.476;5.700;2023-04-02T08:30:51;7.40;;;2.00;;
58581;SDS011;44361;51.476;5.700;2023-04-02T08:33:17;5.05;;;1.80;;
58581;SDS011;44361;51.476;5.700;2023-04-02T08:35:44;7.00;;;1.48;;
58581;SDS011;44361;51.476;5.700;2023-04-02T08:38:12;4.57;;;1.70;;
58581;SDS011;44361;51.476;5.700;2023-04-02T08:40:40;5.35;;;1.63;;
58581;SDS011;44361;51.476;5.700;2023-04-02T08:45:44;2.67;;;1.42;;
58581;SDS011;44361;51.476;5.700;2023-04-02T08:48:31;4.63;;;1.88;;
58581;SDS011;44361;51.476;5.700;2023-04-02T08:50:58;4.63;;;1.58;;
58581;SDS011;44361;51.476;5.700;2023-04-02T08:53:30;2.33;;;1.38;;
58581;SDS011;44361;51.476;5.700;2023-04-02T08:56:08;6.72;;;1.70;;
58581;SDS011;44361;51.476;5.700;2023-04-02T09:04:21;3.72;;;1.35;;
58581;SDS011;44361;51.476;5.700;2023-04-02T09:06:49;2.30;;;1.30;;
58581;SDS011;44361;51.476;5.700;2023-04-02T09:09:18;6.32;;;1.40;;
58581;SDS011;44361;51.476;5.700;2023-04-02T09:14:39;4.83;;;1.60;;
58581;SDS011;44361;51.476;5.700;2023-04-02T09:17:11;2.10;;;1.42;;
58581;SDS011;44361;51.476;5.700;2023-04-02T09:19:43;7.28;;;1.50;;
58581;SDS011;44361;51.476;5.700;2023-04-02T09:22:23;3.88;;;1.70;;
58581;SDS011;44361;51.476;5.700;2023-04-02T09:24:56;4.68;;;1.67;;
58581;SDS011;44361;51.476;5.700;2023-04-02T09:27:25;3.60;;;1.58;;
58581;SDS011;44361;51.476;5.700;2023-04-02T09:32:49;2.45;;;1.20;;
58581;SDS011;44361;51.476;5.700;2023-04-02T09:35:28;4.40;;;1.50;;
58581;SDS011;44361;51.476;5.700;2023-04-02T09:40:49;2.90;;;1.30;;
58581;SDS011;44361;51.476;5.700;2023-04-02T09:46:01;5.70;;;1.33;;
58581;SDS011;44361;51.476;5.700;2023-04-02T09:48:44;2.38;;;1.23;;
58581;SDS011;44361;51.476;5.700;2023-04-02T09:56:29;6.03;;;1.98;;
58581;SDS011;44361;51.476;5.700;2023-04-02T10:01:34;3.95;;;1.23;;
58581;SDS011;44361;51.476;5.700;2023-04-02T10:06:29;2.47;;;1.58;;
58581;SDS011;44361;51.476;5.700;2023-04-02T10:08:57;3.45;;;1.00;;
58581;SDS011;44361;51.476;5.700;2023-04-02T10:11:42;3.85;;;1.10;;
58581;SDS011;44361;51.476;5.700;2023-04-02T10:14:27;4.25;;;1.35;;
58581;SDS011;44361;51.476;5.700;2023-04-02T10:16:57;2.15;;;1.17;;
58581;SDS011;44361;51.476;5.700;2023-04-02T10:19:36;4.57;;;1.00;;
58581;SDS011;44361;51.476;5.700;2023-04-02T10:22:12;3.20;;;1.13;;
58581;SDS011;44361;51.476;5.700;2023-04-02T10:24:41;3.75;;;1.10;;
58581;SDS011;44361;51.476;5.700;2023-04-02T10:30:07;4.50;;;1.20;;
58581;SDS011;44361;51.476;5.700;2023-04-02T10:32:59;4.13;;;1.50;;
58581;SDS011;44361;51.476;5.700;2023-04-02T10:43:52;2.40;;;0.98;;
58581;SDS011;44361;51.476;5.700;2023-04-02T10:49:49;5.13;;;1.08;;
58581;SDS011;44361;51.476;5.700;2023-04-02T10:52:44;2.92;;;0.98;;
58581;SDS011;44361;51.476;5.700;2023-04-02T10:55:17;1.52;;;0.77;;
58581;SDS011;44361;51.476;5.700;2023-04-02T10:57:47;2.38;;;1.15;;
58581;SDS011;44361;51.476;5.700;2023-04-02T11:00:23;7.10;;;1.40;;
58581;SDS011;44361;51.476;5.700;2023-04-02T11:05:41;3.35;;;1.05;;
58581;SDS011;44361;51.476;5.700;2023-04-02T11:16:11;3.17;;;1.27;;
58581;SDS011;44361;51.476;5.700;2023-04-02T11:18:39;2.80;;;1.08;;
58581;SDS011;44361;51.476;5.700;2023-04-02T11:21:06;4.40;;;1.00;;
58581;SDS011;44361;51.476;5.700;2023-04-02T11:23:54;2.90;;;0.98;;
58581;SDS011;44361;51.476;5.700;2023-04-02T11:26:38;2.03;;;1.10;;
58581;SDS011;44361;51.476;5.700;2023-04-02T11:29:26;3.10;;;1.00;;
58581;SDS011;44361;51.476;5.700;2023-04-02T11:37:38;5.43;;;1.17;;
58581;SDS011;44361;51.476;5.700;2023-04-02T11:42:35;2.58;;;1.10;;
58581;SDS011;44361;51.476;5.700;2023-04-02T11:50:28;2.10;;;0.98;;
58581;SDS011;44361;51.476;5.700;2023-04-02T11:53:01;1.88;;;0.82;;
58581;SDS011;44361;51.476;5.700;2023-04-02T11:55:29;3.05;;;1.27;;
58581;SDS011;44361;51.476;5.700;2023-04-02T12:00:55;4.82;;;0.93;;
58581;SDS011;44361;51.476;5.700;2023-04-02T12:11:59;6.28;;;1.90;;
58581;SDS011;44361;51.476;5.700;2023-04-02T12:17:15;1.58;;;0.95;;
58581;SDS011;44361;51.476;5.700;2023-04-02T12:19:56;2.63;;;1.00;;
58581;SDS011;44361;51.476;5.700;2023-04-02T12:22:48;2.05;;;0.90;;
58581;SDS011;44361;51.476;5.700;2023-04-02T12:27:44;2.42;;;1.00;;
58581;SDS011;44361;51.476;5.700;2023-04-02T12:30:16;3.30;;;1.30;;
58581;SDS011;44361;51.476;5.700;2023-04-02T12:32:44;2.72;;;1.10;;
58581;SDS011;44361;51.476;5.700;2023-04-02T12:35:24;2.38;;;1.02;;
58581;SDS011;44361;51.476;5.700;2023-04-02T12:37:51;2.55;;;1.10;;
58581;SDS011;44361;51.476;5.700;2023-04-02T12:40:17;1.63;;;0.95;;
58581;SDS011;44361;51.476;5.700;2023-04-02T12:42:43;1.70;;;0.98;;
58581;SDS011;44361;51.476;5.700;2023-04-02T12:45:20;1.73;;;0.77;;
58581;SDS011;44361;51.476;5.700;2023-04-02T12:47:50;2.67;;;1.52;;
58581;SDS011;44361;51.476;5.700;2023-04-02T12:50:17;1.08;;;0.80;;
58581;SDS011;44361;51.476;5.700;2023-04-02T12:52:52;4.28;;;0.95;;
58581;SDS011;44361;51.476;5.700;2023-04-02T12:55:20;2.53;;;1.15;;
58581;SDS011;44361;51.476;5.700;2023-04-02T12:57:48;2.15;;;0.80;;
58581;SDS011;44361;51.476;5.700;2023-04-02T13:02:46;3.13;;;0.75;;
58581;SDS011;44361;51.476;5.700;2023-04-02T13:05:29;5.07;;;1.20;;
58581;SDS011;44361;51.476;5.700;2023-04-02T13:10:44;3.67;;;1.05;;
58581;SDS011;44361;51.476;5.700;2023-04-02T13:13:13;3.33;;;1.30;;
58581;SDS011;44361;51.476;5.700;2023-04-02T13:16:04;3.92;;;1.33;;
58581;SDS011;44361;51.476;5.700;2023-04-02T13:18:36;4.57;;;1.30;;
58581;SDS011;44361;51.476;5.700;2023-04-02T13:21:03;3.45;;;1.42;;
58581;SDS011;44361;51.476;5.700;2023-04-02T13:31:28;1.88;;;1.02;;
58581;SDS011;44361;51.476;5.700;2023-04-02T13:33:54;2.47;;;1.00;;
58581;SDS011;44361;51.476;5.700;2023-04-02T13:36:20;2.72;;;1.35;;
58581;SDS011;44361;51.476;5.700;2023-04-02T13:38:46;1.55;;;1.02;;
58581;SDS011;44361;51.476;5.700;2023-04-02T13:41:22;3.72;;;1.15;;
58581;SDS011;44361;51.476;5.700;2023-04-02T13:43:56;3.15;;;1.10;;
58581;SDS011;44361;51.476;5.700;2023-04-02T13:46:28;3.33;;;1.25;;
58581;SDS011;44361;51.476;5.700;2023-04-02T13:48:56;1.88;;;1.10;;
58581;SDS011;44361;51.476;5.700;2023-04-02T13:51:35;4.95;;;1.38;;
58581;SDS011;44361;51.476;5.700;2023-04-02T13:54:05;4.13;;;1.48;;
58581;SDS011;44361;51.476;5.700;2023-04-02T13:56:34;5.78;;;1.10;;
58581;SDS011;44361;51.476;5.700;2023-04-02T13:59:00;6.22;;;1.25;;
58581;SDS011;44361;51.476;5.700;2023-04-02T14:01:25;3.85;;;1.38;;
58581;SDS011;44361;51.476;5.700;2023-04-02T14:03:51;3.55;;;1.00;;
58581;SDS011;44361;51.476;5.700;2023-04-02T14:06:21;1.77;;;1.10;;
58581;SDS011;44361;51.476;5.700;2023-04-02T14:08:59;3.72;;;1.23;;
58581;SDS011;44361;51.476;5.700;2023-04-02T14:14:52;3.70;;;1.40;;
58581;SDS011;44361;51.476;5.700;2023-04-02T14:25:18;3.75;;;1.38;;
58581;SDS011;44361;51.476;5.700;2023-04-02T14:27:59;3.75;;;1.48;;
58581;SDS011;44361;51.476;5.700;2023-04-02T14:33:45;4.90;;;1.80;;
58581;SDS011;44361;51.476;5.700;2023-04-02T14:38:47;5.45;;;1.60;;
58581;SDS011;44361;51.476;5.700;2023-04-02T14:41:44;4.40;;;1.20;;
58581;SDS011;44361;51.476;5.700;2023-04-02T14:44:19;6.65;;;1.00;;
58581;SDS011;44361;51.476;5.700;2023-04-02T14:46:48;3.03;;;1.58;;
58581;SDS011;44361;51.476;5.700;2023-04-02T14:49:30;2.22;;;1.17;;
58581;SDS011;44361;51.476;5.700;2023-04-02T14:52:03;4.70;;;1.52;;
58581;SDS011;44361;51.476;5.700;2023-04-02T14:54:35;2.15;;;1.35;;
58581;SDS011;44361;51.476;5.700;2023-04-02T14:57:11;3.25;;;1.20;;
58581;SDS011;44361;51.476;5.700;2023-04-02T15:02:53;2.92;;;1.02;;
58581;SDS011;44361;51.476;5.700;2023-04-02T15:08:08;2.38;;;0.93;;
58581;SDS011;44361;51.476;5.700;2023-04-02T15:10:44;2.55;;;1.30;;
58581;SDS011;44361;51.476;5.700;2023-04-02T15:13:18;5.05;;;1.23;;
58581;SDS011;44361;51.476;5.700;2023-04-02T15:15:50;5.55;;;1.30;;
58581;SDS011;44361;51.476;5.700;2023-04-02T15:18:20;3.15;;;1.23;;
58581;SDS011;44361;51.476;5.700;2023-04-02T15:20:53;3.25;;;1.08;;
58581;SDS011;44361;51.476;5.700;2023-04-02T15:23:37;4.95;;;1.40;;
58581;SDS011;44361;51.476;5.700;2023-04-02T15:26:14;2.35;;;1.08;;
58581;SDS011;44361;51.476;5.700;2023-04-02T15:28:47;1.95;;;0.88;;
58581;SDS011;44361;51.476;5.700;2023-04-02T15:31:15;5.63;;;1.30;;
58581;SDS011;44361;51.476;5.700;2023-04-02T15:33:44;3.83;;;1.20;;
58581;SDS011;44361;51.476;5.700;2023-04-02T15:36:30;2.60;;;1.70;;
58581;SDS011;44361;51.476;5.700;2023-04-02T15:42:32;3.20;;;1.25;;
58581;SDS011;44361;51.476;5.700;2023-04-02T15:44:31;3.72;;;1.08;;
58581;SDS011;44361;51.476;5.700;2023-04-02T15:49:53;3.33;;;1.40;;
58581;SDS011;44361;51.476;5.700;2023-04-02T16:01:26;4.60;;;1.02;;
58581;SDS011;44361;51.476;5.700;2023-04-02T16:04:44;4.30;;;1.02;;
58581;SDS011;44361;51.476;5.700;2023-04-02T16:07:53;3.45;;;1.00;;
58581;SDS011;44361;51.476;5.700;2023-04-02T16:10:45;3.75;;;1.33;;
58581;SDS011;44361;51.476;5.700;2023-04-02T16:21:23;2.42;;;1.00;;
58581;SDS011;44361;51.476;5.700;2023-04-02T16:23:52;2.20;;;1.02;;
58581;SDS011;44361;51.476;5.700;2023-04-02T16:26:35;2.67;;;1.00;;
58581;SDS011;44361;51.476;5.700;2023-04-02T16:31:43;3.85;;;1.13;;
58581;SDS011;44361;51.476;5.700;2023-04-02T16:34:48;2.10;;;1.25;;
58581;SDS011;44361;51.476;5.700;2023-04-02T16:37:41;3.28;;;1.08;;
58581;SDS011;44361;51.476;5.700;2023-04-02T16:40:20;3.38;;;0.80;;
58581;SDS011;44361;51.476;5.700;2023-04-02T16:43:17;3.50;;;0.90;;
58581;SDS011;44361;51.476;5.700;2023-04-02T16:46:11;4.43;;;1.55;;
58581;SDS011;44361;51.476;5.700;2023-04-02T16:48:53;3.78;;;2.08;;
58581;SDS011;44361;51.476;5.700;2023-04-02T16:54:10;6.05;;;1.88;;
58581;SDS011;44361;51.476;5.700;2023-04-02T16:57:08;5.32;;;2.10;;
58581;SDS011;44361;51.476;5.700;2023-04-02T16:59:53;3.45;;;1.20;;
58581;SDS011;44361;51.476;5.700;2023-04-02T17:10:44;3.42;;;1.15;;
58581;SDS011;44361;51.476;5.700;2023-04-02T17:13:23;1.80;;;1.23;;
58581;SDS011;44361;51.476;5.700;2023-04-02T17:16:03;3.60;;;1.15;;
58581;SDS011;44361;51.476;5.700;2023-04-02T17:18:37;2.75;;;1.10;;
58581;SDS011;44361;51.476;5.700;2023-04-02T17:21:06;4.70;;;1.10;;
58581;SDS011;44361;51.476;5.700;2023-04-02T17:23:42;1.92;;;0.95;;
58581;SDS011;44361;51.476;5.700;2023-04-02T17:26:13;3.65;;;0.98;;
58581;SDS011;44361;51.476;5.700;2023-04-02T17:28:43;2.90;;;1.08;;
58581;SDS011;44361;51.476;5.700;2023-04-02T17:31:19;3.83;;;0.75;;
58581;SDS011;44361;51.476;5.700;2023-04-02T17:33:49;2.47;;;0.47;;
58581;SDS011;44361;51.476;5.700;2023-04-02T17:36:27;2.22;;;1.20;;
58581;SDS011;44361;51.476;5.700;2023-04-02T17:39:02;3.08;;;0.95;;
58581;SDS011;44361;51.476;5.700;2023-04-02T17:41:59;1.90;;;0.90;;
58581;SDS011;44361;51.476;5.700;2023-04-02T17:44:46;1.67;;;1.08;;
58581;SDS011;44361;51.476;5.700;2023-04-02T17:53:07;3.78;;;2.00;;
58581;SDS011;44361;51.476;5.700;2023-04-02T17:55:58;6.07;;;1.67;;
58581;SDS011;44361;51.476;5.700;2023-04-02T18:04:07;3.22;;;1.60;;
58581;SDS011;44361;51.476;5.700;2023-04-02T18:06:45;5.60;;;1.40;;
58581;SDS011;44361;51.476;5.700;2023-04-02T18:09:43;3.25;;;1.17;;
58581;SDS011;44361;51.476;5.700;2023-04-02T18:23:58;2.50;;;1.08;;
58581;SDS011;44361;51.476;5.700;2023-04-02T18:32:21;3.03;;;1.37;;
58581;SDS011;44361;51.476;5.700;2023-04-02T18:35:32;6.40;;;1.00;;
58581;SDS011;44361;51.476;5.700;2023-04-02T18:41:00;4.40;;;1.30;;
58581;SDS011;44361;51.476;5.700;2023-04-02T18:43:29;2.65;;;0.90;;
58581;SDS011;44361;51.476;5.700;2023-04-02T18:51:21;3.65;;;1.33;;
58581;SDS011;44361;51.476;5.700;2023-04-02T18:53:49;3.03;;;1.13;;
58581;SDS011;44361;51.476;5.700;2023-04-02T18:56:38;3.30;;;1.27;;
58581;SDS011;44361;51.476;5.700;2023-04-02T19:01:40;2.92;;;1.42;;
58581;SDS011;44361;51.476;5.700;2023-04-02T19:04:12;1.88;;;0.90;;
58581;SDS011;44361;51.476;5.700;2023-04-02T19:06:45;3.57;;;1.20;;
58581;SDS011;44361;51.476;5.700;2023-04-02T19:09:23;4.53;;;1.20;;
58581;SDS011;44361;51.476;5.700;2023-04-02T19:11:55;3.95;;;1.23;;
58581;SDS011;44361;51.476;5.700;2023-04-02T19:14:21;4.43;;;1.90;;
58581;SDS011;44361;51.476;5.700;2023-04-02T19:19:39;4.32;;;1.25;;
58581;SDS011;44361;51.476;5.700;2023-04-02T19:22:26;3.63;;;1.38;;
58581;SDS011;44361;51.476;5.700;2023-04-02T19:25:14;5.45;;;1.75;;
58581;SDS011;44361;51.476;5.700;2023-04-02T19:28:04;2.83;;;1.73;;
58581;SDS011;44361;51.476;5.700;2023-04-02T19:44:02;5.97;;;3.05;;
58581;SDS011;44361;51.476;5.700;2023-04-02T19:46:27;9.48;;;2.95;;
58581;SDS011;44361;51.476;5.700;2023-04-02T19:49:01;7.82;;;3.35;;
58581;SDS011;44361;51.476;5.700;2023-04-02T19:51:32;5.85;;;2.90;;
58581;SDS011;44361;51.476;5.700;2023-04-02T19:53:58;4.35;;;2.75;;
58581;SDS011;44361;51.476;5.700;2023-04-02T19:56:24;5.97;;;3.25;;
58581;SDS011;44361;51.476;5.700;2023-04-02T19:58:50;6.88;;;3.38;;
58581;SDS011;44361;51.476;5.700;2023-04-02T20:01:16;7.18;;;3.60;;
58581;SDS011;44361;51.476;5.700;2023-04-02T20:03:42;6.82;;;3.88;;
58581;SDS011;44361;51.476;5.700;2023-04-02T20:06:07;9.18;;;4.03;;
58581;SDS011;44361;51.476;5.700;2023-04-02T20:08:33;8.57;;;4.25;;
58581;SDS011;44361;51.476;5.700;2023-04-02T20:11:00;10.98;;;4.75;;
58581;SDS011;44361;51.476;5.700;2023-04-02T20:13:26;9.10;;;3.83;;
58581;SDS011;44361;51.476;5.700;2023-04-02T20:15:52;6.18;;;3.20;;
58581;SDS011;44361;51.476;5.700;2023-04-02T20:18:17;4.30;;;2.50;;
58581;SDS011;44361;51.476;5.700;2023-04-02T20:20:44;5.07;;;2.88;;
58581;SDS011;44361;51.476;5.700;2023-04-02T20:23:11;9.63;;;3.40;;